Time;durP1;ratioP1;P1;durP2;ratioP2;P2;SDS_P1;SDS_P2;PMS_P1;PMS_P2;Temp;Humidity;BMP_temperature;BMP_pressure;BME280_temperature;BME280_humidity;BME280_pressure;Samples;Min_cycle;Max_cycle;Signal;HPM_P1;HPM_P2
2023/12/22 00:00:17;;;;;;;8.03;1.60;;;;;;;5.25;100.00;100311.28;5090260;28;20376;-36
2023/12/22 00:02:43;;;;;;;5.45;1.42;;;;;;;5.24;100.00;100291.69;5089712;28;20050;-36
2023/12/22 00:05:08;;;;;;;5.75;1.80;;;;;;;5.20;100.00;100287.78;5090055;28;20028;-36
2023/12/22 00:07:34;;;;;;;6.13;2.07;;;;;;;5.28;100.00;100316.25;5082693;28;20471;-36
2023/12/22 00:09:59;;;;;;;9.50;1.93;;;;;;;5.30;100.00;100303.44;5076212;28;20527;-36
2023/12/22 00:12:24;;;;;;;8.20;2.30;;;;;;;5.28;100.00;100294.78;5076527;28;20052;-36
2023/12/22 00:14:50;;;;;;;5.67;1.83;;;;;;;5.26;100.00;100303.03;5076375;28;20052;-36
2023/12/22 00:17:15;;;;;;;8.87;2.57;;;;;;;5.25;100.00;100306.75;5076258;28;20487;-36
2023/12/22 00:19:40;;;;;;;9.97;2.50;;;;;;;5.23;100.00;100314.19;5076105;28;20056;-36
2023/12/22 00:22:06;;;;;;;13.43;4.10;;;;;;;5.25;100.00;100322.84;5075859;28;20024;-36
2023/12/22 00:24:31;;;;;;;8.75;2.55;;;;;;;5.25;100.00;100333.56;5075990;28;20024;-36
2023/12/22 00:26:56;;;;;;;7.57;1.67;;;;;;;5.28;100.00;100343.06;5076036;28;20111;-36
2023/12/22 00:29:22;;;;;;;8.00;2.27;;;;;;;5.28;100.00;100338.50;5076707;28;20032;-36
2023/12/22 00:31:47;;;;;;;9.97;2.00;;;;;;;5.25;100.00;100343.47;5075883;28;20025;-36
2023/12/22 00:34:12;;;;;;;11.83;2.20;;;;;;;5.31;100.00;100329.22;5075588;28;20055;-36
2023/12/22 00:36:38;;;;;;;10.03;2.27;;;;;;;5.29;100.00;100329.44;5076078;28;20029;-36
2023/12/22 00:39:04;;;;;;;11.83;2.47;;;;;;;5.31;100.00;100338.06;5075425;28;20362;-36
2023/12/22 00:41:29;;;;;;;12.02;2.75;;;;;;;5.21;100.00;100312.72;5075944;28;20025;-36
2023/12/22 00:43:54;;;;;;;6.70;2.13;;;;;;;5.30;100.00;100336.44;5075737;28;20025;-36
2023/12/22 00:46:20;;;;;;;8.80;2.20;;;;;;;5.24;100.00;100334.59;5075704;28;20493;-36
2023/12/22 00:48:45;;;;;;;9.48;2.13;;;;;;;5.32;100.00;100334.38;5075479;28;20028;-36
2023/12/22 00:51:11;;;;;;;8.20;2.42;;;;;;;5.31;100.00;100330.03;5075785;28;20032;-36
2023/12/22 00:53:36;;;;;;;8.10;2.33;;;;;;;5.25;100.00;100320.16;5075173;28;20515;-36
2023/12/22 00:56:05;;;;;;;10.82;2.42;;;;;;;5.25;100.00;100320.16;5075788;28;20044;-36
2023/12/22 00:58:31;;;;;;;11.07;2.92;;;;;;;5.28;100.00;100330.47;5075009;28;20472;-36
2023/12/22 01:00:56;;;;;;;6.60;1.90;;;;;;;5.28;100.00;100326.97;5076163;28;20039;-36
2023/12/22 01:03:22;;;;;;;9.90;2.40;;;;;;;5.19;100.00;100320.16;5075269;28;20028;-36
2023/12/22 01:05:47;;;;;;;9.32;2.50;;;;;;;5.21;100.00;100321.59;5074952;28;20090;-36
2023/12/22 01:08:13;;;;;;;9.63;2.20;;;;;;;5.22;100.00;100322.41;5074938;28;20086;-36
2023/12/22 01:10:38;;;;;;;8.00;1.80;;;;;;;5.20;100.00;100317.28;5075437;28;20035;-36
2023/12/22 01:13:03;;;;;;;11.07;2.60;;;;;;;5.15;100.00;100319.75;5075050;28;20028;-36
2023/12/22 01:15:29;;;;;;;8.50;2.00;;;;;;;5.20;100.00;100328.00;5075239;28;20028;-36
2023/12/22 01:17:54;;;;;;;6.83;1.90;;;;;;;5.25;100.00;100352.31;5074933;28;20094;-36
2023/12/22 01:20:19;;;;;;;6.90;2.40;;;;;;;5.32;100.00;100338.91;5074337;28;20020;-36
2023/12/22 01:22:45;;;;;;;14.03;3.67;;;;;;;5.39;100.00;100337.88;5074959;28;20024;-36
2023/12/22 01:25:10;;;;;;;10.30;2.67;;;;;;;5.45;100.00;100324.66;5074903;28;20029;-36
2023/12/22 01:27:35;;;;;;;10.73;2.40;;;;;;;5.48;100.00;100345.69;5074849;28;20086;-36
2023/12/22 01:30:01;;;;;;;8.87;2.67;;;;;;;5.51;100.00;100353.31;5074735;28;20035;-36
2023/12/22 01:32:26;;;;;;;11.63;2.87;;;;;;;5.55;100.00;100354.53;5074733;28;20495;-36
2023/12/22 01:34:51;;;;;;;11.93;2.87;;;;;;;5.56;100.00;100362.41;5074503;28;20086;-36
2023/12/22 01:37:17;;;;;;;11.63;2.83;;;;;;;5.51;100.00;100353.31;5074899;28;20255;-36
2023/12/22 01:39:42;;;;;;;14.03;2.93;;;;;;;5.59;100.00;100378.06;5074345;28;20029;-36
2023/12/22 01:42:07;;;;;;;12.40;2.80;;;;;;;5.58;100.00;100356.81;5074511;28;20025;-36
2023/12/22 01:44:33;;;;;;;13.37;3.00;;;;;;;5.57;100.00;100357.84;5074449;28;20025;-36
2023/12/22 01:46:58;;;;;;;9.93;2.53;;;;;;;5.59;100.00;100355.78;5074734;28;20115;-36
2023/12/22 01:49:25;;;;;;;16.27;3.38;;;;;;;5.63;100.00;100357.81;5075103;28;20024;-36
2023/12/22 01:51:52;;;;;;;11.13;2.55;;;;;;;5.59;100.00;100337.81;5074567;28;20066;-36
2023/12/22 01:54:18;;;;;;;15.90;2.78;;;;;;;5.73;100.00;100360.06;5073940;28;20035;-36
2023/12/22 01:56:44;;;;;;;;;;;;;;;5.78;100.00;100380.91;5075013;28;20041;-36
2023/12/22 01:59:10;;;;;;;15.43;2.92;;;;;;;5.79;100.00;100367.25;5074125;28;19919;-36
2023/12/22 02:01:35;;;;;;;11.40;2.83;;;;;;;5.84;100.00;100375.50;5074205;28;20035;-36
2023/12/22 02:04:02;;;;;;;11.40;2.67;;;;;;;5.81;100.00;100362.53;5074015;28;20024;-36
2023/12/22 02:06:30;;;;;;;11.23;3.20;;;;;;;5.91;100.00;100359.41;5073779;28;20485;-36
2023/12/22 02:08:57;;;;;;;12.27;2.70;;;;;;;5.91;100.00;100351.34;5073953;28;20024;-36
2023/12/22 02:11:23;;;;;;;15.68;3.63;;;;;;;6.01;100.00;100348.25;5074755;28;20029;-36
2023/12/22 02:13:49;;;;;;;15.48;3.13;;;;;;;6.05;100.00;100363.72;5074645;28;20342;-36
2023/12/22 02:16:27;;;;;;;11.35;2.60;;;;;;;6.08;100.00;100359.75;5073509;28;20028;-36
2023/12/22 02:18:55;;;;;;;10.45;2.63;;;;;;;6.04;100.00;100358.53;5073592;28;20107;-36
2023/12/22 02:21:21;;;;;;;8.10;2.10;;;;;;;6.02;100.00;100361.44;5074345;28;20099;-36
2023/12/22 02:23:47;;;;;;;11.88;2.00;;;;;;;5.96;100.00;100345.38;5074311;28;20483;-36
2023/12/22 02:26:16;;;;;;;;;;;;;;;6.04;100.00;100359.34;5074477;28;20378;-36
2023/12/22 02:28:46;;;;;;;10.55;2.60;;;;;;;6.01;100.00;100367.03;5074436;28;19915;-36
2023/12/22 02:31:27;;;;;;;13.95;3.20;;;;;;;5.98;100.00;100370.13;5073683;28;20116;-36
2023/12/22 02:33:55;;;;;;;10.57;2.85;;;;;;;6.00;100.00;100357.31;5073451;28;20098;-36
2023/12/22 02:36:21;;;;;;;12.07;3.35;;;;;;;6.09;100.00;100366.78;5073484;28;20108;-36
2023/12/22 02:38:48;;;;;;;;;;;;;;;6.11;100.00;100376.28;5074217;28;20040;-36
2023/12/22 02:41:14;;;;;;;8.33;2.87;;;;;;;6.13;100.00;100362.63;5073379;28;19908;-36
2023/12/22 02:43:39;;;;;;;10.63;2.75;;;;;;;6.10;100.00;100358.53;5073510;28;20336;-36
2023/12/22 02:46:04;;;;;;;12.47;2.70;;;;;;;6.07;100.00;100342.03;5073831;28;20412;-36
2023/12/22 02:48:30;;;;;;;12.43;3.10;;;;;;;6.22;100.00;100349.78;5073243;28;20503;-36
2023/12/22 02:50:55;;;;;;;8.40;2.63;;;;;;;6.24;100.00;100366.50;5073317;28;20531;-36
2023/12/22 02:53:20;;;;;;;10.77;2.70;;;;;;;6.25;100.00;100360.94;5073089;28;20093;-36
2023/12/22 02:55:46;;;;;;;16.43;2.60;;;;;;;6.31;100.00;100353.88;5073869;28;20052;-36
2023/12/22 02:58:11;;;;;;;11.30;2.70;;;;;;;6.35;100.00;100344.38;5073195;28;20032;-36
2023/12/22 03:00:36;;;;;;;10.43;2.60;;;;;;;6.35;100.00;100347.88;5073369;28;20021;-36
2023/12/22 03:03:02;;;;;;;9.93;2.47;;;;;;;6.24;100.00;100323.53;5073275;28;20484;-36
2023/12/22 03:05:27;;;;;;;10.95;3.03;;;;;;;6.35;100.00;100330.94;5073786;28;20036;-36
2023/12/22 03:07:52;;;;;;;9.60;2.07;;;;;;;6.34;100.00;100331.94;5073591;28;20028;-36
2023/12/22 03:10:18;;;;;;;9.97;2.57;;;;;;;6.32;100.00;100336.72;5072961;28;20037;-36
2023/12/22 03:12:43;;;;;;;12.33;2.50;;;;;;;6.28;100.00;100322.91;5073845;28;20034;-36
2023/12/22 03:15:09;;;;;;;9.37;2.53;;;;;;;6.15;100.00;100301.50;5073098;28;20036;-36
2023/12/22 03:17:34;;;;;;;13.55;3.53;;;;;;;6.12;100.00;100304.63;5073252;28;20054;-36
2023/12/22 03:20:00;;;;;;;10.30;2.53;;;;;;;6.11;100.00;100321.78;5073225;28;20138;-36
2023/12/22 03:22:25;;;;;;;10.57;2.50;;;;;;;6.08;100.00;100317.63;5073741;28;20185;-36
2023/12/22 03:24:50;;;;;;;8.87;2.67;;;;;;;6.14;100.00;100340.13;5073391;28;20028;-36
2023/12/22 03:27:17;;;;;;;11.73;3.50;;;;;;;6.12;100.00;100342.19;5073678;28;20032;-36
2023/12/22 03:29:44;;;;;;;8.10;2.50;;;;;;;6.13;100.00;100341.97;5073014;28;20052;-36
2023/12/22 03:32:09;;;;;;;11.70;2.55;;;;;;;6.10;100.00;100338.88;5072814;28;20020;-36
2023/12/22 03:34:34;;;;;;;12.17;2.60;;;;;;;6.13;100.00;100351.91;5073377;28;20035;-36
2023/12/22 03:37:00;;;;;;;13.80;2.80;;;;;;;6.11;100.00;100349.44;5072684;28;20028;-36
2023/12/22 03:39:25;;;;;;;11.70;2.50;;;;;;;6.13;100.00;100359.94;5073584;28;20031;-36
2023/12/22 03:41:50;;;;;;;8.40;2.23;;;;;;;6.20;100.00;100352.69;5073166;28;20027;-36
2023/12/22 03:44:16;;;;;;;11.60;2.77;;;;;;;6.24;100.00;100345.84;5076788;28;20302;-36
2023/12/22 03:46:41;;;;;;;8.83;2.07;;;;;;;6.34;100.00;100354.25;5076721;28;20055;-36
2023/12/22 03:49:06;;;;;;;7.20;2.10;;;;;;;6.40;100.00;100353.41;5077251;28;20055;-36
2023/12/22 03:51:32;;;;;;;5.60;1.90;;;;;;;6.43;100.00;100352.97;5076654;28;20028;-36
2023/12/22 03:53:57;;;;;;;8.63;2.90;;;;;;;6.49;100.00;100345.06;5077350;28;20090;-36
2023/12/22 03:56:22;;;;;;;7.63;2.53;;;;;;;6.53;100.00;100357.88;5076417;28;20127;-36
2023/12/22 03:58:48;;;;;;;9.67;2.70;;;;;;;6.49;100.00;100342.41;5076451;28;20020;-36
2023/12/22 04:01:16;;;;;;;9.40;2.53;;;;;;;6.56;100.00;100356.63;5076819;28;20025;-36
2023/12/22 04:03:41;;;;;;;8.25;1.98;;;;;;;6.57;100.00;100363.63;5077162;28;20465;-36
2023/12/22 04:06:07;;;;;;;12.90;3.00;;;;;;;6.62;100.00;100364.63;5076658;28;20052;-36
2023/12/22 04:08:32;;;;;;;8.70;1.93;;;;;;;6.53;100.00;100355.19;5076826;28;20506;-36
2023/12/22 04:10:57;;;;;;;9.17;2.33;;;;;;;6.68;100.00;100381.75;5076282;28;20024;-36
2023/12/22 04:13:23;;;;;;;10.43;2.47;;;;;;;6.69;100.00;100378.84;5075968;28;20067;-36
2023/12/22 04:15:48;;;;;;;15.80;2.47;;;;;;;6.74;100.00;100396.19;5076667;28;20024;-36
2023/12/22 04:18:14;;;;;;;9.33;2.60;;;;;;;6.68;100.00;100374.50;5076192;28;20078;-36
2023/12/22 04:20:39;;;;;;;10.90;2.37;;;;;;;6.79;100.00;100388.31;5075865;28;20107;-36
2023/12/22 04:23:04;;;;;;;10.23;2.13;;;;;;;6.80;100.00;100388.09;5075715;28;20025;-36
2023/12/22 04:25:30;;;;;;;12.55;2.65;;;;;;;6.78;100.00;100384.78;5075708;28;20067;-36
2023/12/22 04:27:55;;;;;;;10.63;2.10;;;;;;;6.83;100.00;100395.72;5075861;28;20060;-36
2023/12/22 04:30:20;;;;;;;10.40;2.53;;;;;;;6.83;100.00;100394.88;5075998;28;20455;-36
2023/12/22 04:32:46;;;;;;;12.90;2.83;;;;;;;6.86;100.00;100400.66;5075907;28;20453;-36
2023/12/22 04:35:11;;;;;;;9.90;2.00;;;;;;;6.87;100.00;100418.41;5075698;28;20024;-36
2023/12/22 04:37:37;;;;;;;7.73;2.30;;;;;;;6.88;100.00;100409.34;5076039;28;20133;-36
2023/12/22 04:40:02;;;;;;;10.57;3.07;;;;;;;6.94;100.00;100408.47;5075664;28;20055;-36
2023/12/22 04:42:29;;;;;;;6.65;1.90;;;;;;;6.85;100.00;100396.31;5076275;28;20025;-36
2023/12/22 04:44:54;;;;;;;12.20;2.72;;;;;;;6.91;100.00;100392.75;5076446;28;20029;-36
2023/12/22 04:47:20;;;;;;;11.77;2.57;;;;;;;6.97;100.00;100402.63;5075640;28;20074;-36
2023/12/22 04:49:46;;;;;;;15.10;3.90;;;;;;;6.99;100.00;100409.69;5075271;28;20067;-36
2023/12/22 04:52:11;;;;;;;10.33;2.53;;;;;;;7.03;100.00;100392.91;5076362;28;20032;-36
2023/12/22 04:54:37;;;;;;;12.63;2.85;;;;;;;7.01;100.00;100404.88;5075319;28;20358;-36
2023/12/22 04:57:03;;;;;;;10.63;2.15;;;;;;;7.01;100.00;100405.72;5076031;28;20074;-36
2023/12/22 04:59:28;;;;;;;13.02;2.45;;;;;;;6.83;100.00;100376.91;5075432;28;20029;-36
2023/12/22 05:01:54;;;;;;;7.67;2.20;;;;;;;6.99;100.00;100410.50;5075978;28;20028;-36
2023/12/22 05:04:19;;;;;;;13.17;3.37;;;;;;;6.99;100.00;100415.06;5075299;28;20116;-36
2023/12/22 05:06:45;;;;;;;7.90;2.40;;;;;;;7.00;100.00;100419.38;5075260;28;20303;-36
2023/12/22 05:09:11;;;;;;;7.10;2.03;;;;;;;7.02;100.00;100412.72;5075949;28;20039;-36
2023/12/22 05:11:36;;;;;;;9.30;2.10;;;;;;;7.01;100.00;100411.09;5075133;28;20032;-36
2023/12/22 05:14:01;;;;;;;8.57;2.23;;;;;;;7.00;100.00;100419.38;5074779;28;20170;-36
2023/12/22 05:16:29;;;;;;;8.03;2.13;;;;;;;7.03;100.00;100410.84;5075291;28;20044;-36
2023/12/22 05:18:54;;;;;;;13.68;2.65;;;;;;;7.05;100.00;100408.78;5074635;28;20025;-36
2023/12/22 05:21:21;;;;;;;6.07;2.10;;;;;;;7.11;100.00;100416.81;5074936;28;20032;-36
2023/12/22 05:23:46;;;;;;;6.53;1.77;;;;;;;7.15;100.00;100426.09;5074838;28;20051;-36
2023/12/22 05:26:17;;;;;;;13.37;2.60;;;;;;;7.08;100.00;100421.81;5074645;28;20488;-36
2023/12/22 05:28:42;;;;;;;7.85;1.83;;;;;;;7.07;100.00;100404.00;5074845;28;20052;-36
2023/12/22 05:31:07;;;;;;;7.07;2.00;;;;;;;7.13;100.00;100400.47;5074819;28;20063;-36
2023/12/22 05:33:33;;;;;;;7.07;1.75;;;;;;;7.00;100.00;100401.38;5075123;28;20028;-36
2023/12/22 05:35:58;;;;;;;5.80;1.73;;;;;;;6.94;100.00;100402.25;5074609;28;20029;-36
2023/12/22 05:38:23;;;;;;;8.30;2.00;;;;;;;7.02;100.00;100409.22;5074635;28;20056;-36
2023/12/22 05:40:49;;;;;;;8.53;2.10;;;;;;;7.01;100.00;100410.25;5074866;28;20358;-36
2023/12/22 05:43:15;;;;;;;11.38;3.28;;;;;;;7.01;100.00;100403.03;5074468;28;20373;-36
2023/12/22 05:45:40;;;;;;;11.87;2.27;;;;;;;7.00;100.00;100387.94;5074716;28;20036;-36
2023/12/22 05:48:06;;;;;;;12.40;3.13;;;;;;;7.01;100.00;100404.88;5074072;28;20460;-36
2023/12/22 05:50:32;;;;;;;14.60;2.75;;;;;;;7.02;100.00;100409.22;5074061;28;20185;-36
2023/12/22 05:52:57;;;;;;;13.00;3.20;;;;;;;7.04;100.00;100409.84;5074312;28;20070;-36
2023/12/22 05:55:22;;;;;;;15.13;3.57;;;;;;;7.05;100.00;100408.78;5074452;28;20036;-36
2023/12/22 05:57:48;;;;;;;12.93;3.13;;;;;;;7.06;100.00;100397.81;5073964;28;20032;-36
2023/12/22 06:00:15;;;;;;;19.40;4.87;;;;;;;7.10;100.00;100400.91;5073944;28;20029;-36
2023/12/22 06:02:40;;;;;;;13.07;3.95;;;;;;;7.12;100.00;100396.09;5074127;28;20114;-36
2023/12/22 06:05:06;;;;;;;16.80;3.83;;;;;;;7.18;100.00;100406.84;5073886;28;20067;-36
2023/12/22 06:07:31;;;;;;;15.75;3.83;;;;;;;7.21;100.00;100402.88;5074521;28;20266;-36
2023/12/22 06:09:57;;;;;;;14.27;3.88;;;;;;;7.23;100.00;100401.63;5073953;28;20020;-36
2023/12/22 06:12:22;;;;;;;17.73;3.67;;;;;;;7.23;100.00;100392.72;5074070;28;20029;-36
2023/12/22 06:14:47;;;;;;;15.00;3.73;;;;;;;7.16;100.00;100384.69;5073852;28;20028;-36
2023/12/22 06:17:13;;;;;;;12.80;2.70;;;;;;;7.11;100.00;100405.22;5074203;28;20028;-36
2023/12/22 06:19:38;;;;;;;10.50;2.57;;;;;;;7.01;100.00;100368.06;5074171;28;20448;-36
2023/12/22 06:22:04;;;;;;;9.07;2.90;;;;;;;6.87;100.00;100394.22;5073350;28;20445;-36
2023/12/22 06:24:29;;;;;;;11.32;2.80;;;;;;;6.85;100.00;100377.50;5074006;28;20418;-36
2023/12/22 06:26:54;;;;;;;14.27;3.30;;;;;;;6.79;100.00;100383.75;5073497;28;20103;-36
2023/12/22 06:29:20;;;;;;;13.30;3.78;;;;;;;6.69;100.00;100378.03;5073602;28;20027;-36
2023/12/22 06:31:50;;;;;;;13.20;3.63;;;;;;;6.76;100.00;100403.00;5073438;28;20439;-36
2023/12/22 06:34:16;;;;;;;13.75;3.75;;;;;;;6.78;100.00;100400.06;5073323;28;20024;-36
2023/12/22 06:36:42;;;;;;;20.10;4.97;;;;;;;6.78;100.00;100402.75;5073522;28;20056;-36
2023/12/22 06:39:08;;;;;;;21.35;4.85;;;;;;;6.80;100.00;100408.75;5073755;28;20020;-36
2023/12/22 06:41:33;;;;;;;19.53;4.57;;;;;;;6.83;100.00;100416.38;5073772;28;20032;-36
2023/12/22 06:44:01;;;;;;;26.63;6.13;;;;;;;6.89;100.00;100410.16;5073681;28;20293;-36
2023/12/22 06:46:27;;;;;;;21.48;5.05;;;;;;;6.84;100.00;100402.75;5073430;28;20032;-36
2023/12/22 06:48:54;;;;;;;;;;;;;;;6.99;100.00;100412.38;5073500;28;20036;-36
2023/12/22 06:51:23;;;;;;;19.52;5.07;;;;;;;7.01;100.00;100423.72;5073790;28;19970;-36
2023/12/22 06:53:48;;;;;;;20.13;5.40;;;;;;;6.98;100.00;100406.16;5073434;28;20028;-36
2023/12/22 06:56:24;;;;;;;25.02;5.68;;;;;;;7.03;100.00;100405.47;5074063;28;20044;-36
2023/12/22 06:58:51;;;;;;;20.05;5.07;;;;;;;7.11;100.00;100405.22;5073771;28;20025;-36
2023/12/22 07:01:33;;;;;;;21.38;4.72;;;;;;;7.12;100.00;100396.94;5073451;28;20077;-36
2023/12/22 07:04:00;;;;;;;24.77;5.72;;;;;;;7.15;100.00;100398.38;5073211;28;20044;-36
2023/12/22 07:06:30;;;;;;;21.13;5.38;;;;;;;7.19;100.00;100396.91;5073658;28;20056;-36
2023/12/22 07:09:11;;;;;;;20.77;5.95;;;;;;;7.12;100.00;100377.28;5073394;28;20024;-36
2023/12/22 07:11:44;;;;;;;24.40;5.57;;;;;;;7.07;100.00;100374.44;5073679;28;20028;-36
2023/12/22 07:14:09;;;;;;;20.77;6.32;;;;;;;7.20;100.00;100385.91;5073877;28;20358;-36
2023/12/22 07:16:35;;;;;;;24.88;6.80;;;;;;;7.26;100.00;100403.03;5073881;28;20058;-36
2023/12/22 07:19:01;;;;;;;26.30;5.68;;;;;;;7.31;100.00;100397.81;5077147;28;20033;-36
2023/12/22 07:21:26;;;;;;;21.87;5.83;;;;;;;7.35;100.00;100390.94;5077530;28;20031;-36
2023/12/22 07:23:52;;;;;;;24.77;5.80;;;;;;;7.40;100.00;100404.56;5077196;28;20089;-36
2023/12/22 07:26:17;;;;;;;22.17;5.63;;;;;;;7.43;100.00;100400.63;5077379;28;20035;-36
2023/12/22 07:28:42;;;;;;;20.73;5.40;;;;;;;7.45;100.00;100399.34;5077900;28;20024;-36
2023/12/22 07:31:08;;;;;;;21.90;6.60;;;;;;;7.44;100.00;100396.88;5076478;28;20274;-36
2023/12/22 07:33:33;;;;;;;22.93;6.10;;;;;;;7.48;100.00;100390.84;5076640;28;20397;-36
2023/12/22 07:35:58;;;;;;;25.83;5.77;;;;;;;7.39;100.00;100365.25;5076987;28;20059;-36
2023/12/22 07:38:24;;;;;;;22.20;6.53;;;;;;;7.55;100.00;100395.31;5077219;28;20354;-36
2023/12/22 07:40:49;;;;;;;20.47;4.67;;;;;;;7.52;100.00;100396.59;5077718;28;20051;-36
2023/12/22 07:43:15;;;;;;;24.23;6.07;;;;;;;7.51;100.00;100396.81;5076829;28;20025;-36
2023/12/22 07:45:41;;;;;;;20.90;5.72;;;;;;;7.55;100.00;100403.41;5077310;28;20654;-36
2023/12/22 07:48:06;;;;;;;27.40;6.40;;;;;;;7.57;100.00;100390.56;5076445;28;20055;-36
2023/12/22 07:50:32;;;;;;;21.60;5.55;;;;;;;7.62;100.00;100404.16;5076373;28;20107;-36
2023/12/22 07:52:58;;;;;;;23.25;5.28;;;;;;;7.63;100.00;100389.66;5076674;28;20159;-36
2023/12/22 07:55:24;;;;;;;26.50;6.63;;;;;;;7.64;100.00;100397.50;5076403;28;20040;-36
2023/12/22 07:57:50;;;;;;;21.58;4.78;;;;;;;7.66;100.00;100386.50;5076362;28;20033;-36
2023/12/22 08:00:16;;;;;;;17.58;4.35;;;;;;;7.68;100.00;100387.13;5077024;28;20029;-36
2023/12/22 08:02:41;;;;;;;20.77;5.35;;;;;;;7.69;100.00;100389.59;5076784;28;20321;-36
2023/12/22 08:05:07;;;;;;;16.13;4.60;;;;;;;7.74;100.00;100407.75;5076458;28;20046;-36
2023/12/22 08:07:32;;;;;;;21.92;5.63;;;;;;;7.73;100.00;100392.66;5076976;28;20062;-37
2023/12/22 08:09:58;;;;;;;17.43;4.33;;;;;;;7.68;100.00;100370.97;5076561;28;20043;-36
2023/12/22 08:12:23;;;;;;;22.20;5.80;;;;;;;7.78;100.00;100398.19;5076695;28;20016;-36
2023/12/22 08:14:48;;;;;;;18.67;4.33;;;;;;;7.73;100.00;100388.09;5076285;28;20042;-37
2023/12/22 08:17:14;;;;;;;16.77;4.17;;;;;;;7.83;100.00;100403.72;5076291;28;20057;-36
2023/12/22 08:19:42;;;;;;;15.13;3.93;;;;;;;7.85;100.00;100392.72;5075921;28;20028;-36
2023/12/22 08:22:14;;;;;;;19.77;4.68;;;;;;;7.86;100.00;100389.84;5075190;28;20279;-36
2023/12/22 08:24:40;;;;;;;15.93;4.18;;;;;;;7.87;100.00;100393.34;5076344;28;20063;-36
2023/12/22 08:27:08;;;;;;;11.20;3.80;;;;;;;7.91;100.00;100381.09;5076923;28;20056;-36
2023/12/22 08:29:34;;;;;;;18.60;4.80;;;;;;;7.79;100.00;100361.34;5075486;28;20031;-36
2023/12/22 08:32:00;;;;;;;16.00;3.90;;;;;;;7.86;100.00;100378.25;5076547;28;20107;-36
2023/12/22 08:34:26;;;;;;;14.35;3.65;;;;;;;7.95;100.00;100391.19;5075580;28;20718;-36
2023/12/22 08:36:51;;;;;;;18.20;4.30;;;;;;;7.96;100.00;100382.06;5075509;28;20112;-36
2023/12/22 08:39:16;;;;;;;20.13;5.23;;;;;;;7.86;100.00;100362.91;5075523;28;20052;-36
2023/12/22 08:41:42;;;;;;;13.33;4.07;;;;;;;7.99;100.00;100372.69;5076096;28;20445;-36
2023/12/22 08:44:07;;;;;;;11.02;3.00;;;;;;;7.99;100.00;100368.13;5075664;28;20387;-36
2023/12/22 08:46:34;;;;;;;13.50;3.23;;;;;;;7.98;100.00;100374.56;5076568;28;20036;-36
2023/12/22 08:48:59;;;;;;;;;;;;;;;8.05;100.00;100376.34;5076056;28;20279;-36
2023/12/22 08:51:26;;;;;;;8.65;2.28;;;;;;;8.03;100.00;100360.44;5076380;28;19977;-36
2023/12/22 08:53:52;;;;;;;9.52;2.60;;;;;;;8.04;100.00;100370.13;5075474;28;20060;-36
2023/12/22 08:56:18;;;;;;;12.60;3.78;;;;;;;7.90;100.00;100341.72;5076207;28;20095;-36
2023/12/22 08:58:43;;;;;;;10.15;2.70;;;;;;;8.10;100.00;100365.72;5075986;28;20020;-36
2023/12/22 09:01:15;;;;;;;8.53;2.20;;;;;;;8.11;100.00;100370.91;5075722;28;20471;-36
2023/12/22 09:03:44;;;;;;;9.60;2.22;;;;;;;8.05;100.00;100357.50;5075919;28;20024;-36
2023/12/22 09:06:10;;;;;;;17.13;3.45;;;;;;;8.12;100.00;100355.56;5075034;28;20038;-36
2023/12/22 09:08:35;;;;;;;8.30;1.88;;;;;;;8.00;100.00;100334.78;5074994;28;20111;-36
2023/12/22 09:11:01;;;;;;;6.77;1.83;;;;;;;8.21;100.00;100370.38;5075811;28;20491;-36
2023/12/22 09:13:26;;;;;;;7.03;1.60;;;;;;;8.26;100.00;100373.19;5075208;28;20063;-36
2023/12/22 09:15:51;;;;;;;7.57;1.60;;;;;;;8.27;100.00;100372.16;5075655;28;20032;-36
2023/12/22 09:18:17;;;;;;;7.87;1.47;;;;;;;8.22;100.00;100348.56;5075322;28;20025;-36
2023/12/22 09:20:42;;;;;;;5.37;1.63;;;;;;;8.29;100.00;100370.03;5075711;28;20403;-36
2023/12/22 09:23:09;;;;;;;9.33;1.63;;;;;;;8.30;100.00;100365.50;5074944;28;20024;-36
2023/12/22 09:25:35;;;;;;;6.78;1.83;;;;;;;8.22;100.00;100362.03;5074871;28;20028;-36
2023/12/22 09:28:00;;;;;;;8.60;1.98;;;;;;;8.28;100.00;100371.09;5074870;28;20039;-36
2023/12/22 09:30:25;;;;;;;5.70;1.60;;;;;;;8.27;100.00;100353.28;5075129;28;20078;-36
2023/12/22 09:32:51;;;;;;;5.57;1.60;;;;;;;8.22;100.00;100339.69;5075308;28;20290;-36
2023/12/22 09:35:17;;;;;;;5.70;1.63;;;;;;;8.26;100.00;100352.47;5075189;28;20105;-36
2023/12/22 09:37:42;;;;;;;7.80;1.30;;;;;;;8.28;100.00;100338.75;5074703;28;20603;-36
2023/12/22 09:40:09;;;;;;;6.17;1.67;;;;;;;8.32;100.00;100353.41;5074103;28;20028;-36
2023/12/22 09:42:37;;;;;;;6.15;1.35;;;;;;;8.35;100.00;100347.59;5073339;28;20024;-36
2023/12/22 09:45:05;;;;;;;4.45;1.52;;;;;;;8.36;100.00;100351.94;5075112;28;20028;-36
2023/12/22 09:47:34;;;;;;;5.40;1.30;;;;;;;8.36;100.00;100351.94;5075049;28;20040;-36
2023/12/22 09:50:01;;;;;;;6.82;1.75;;;;;;;8.35;100.00;100339.50;5074874;28;20082;-36
2023/12/22 09:52:28;;;;;;;6.35;1.75;;;;;;;8.45;100.00;100361.38;5074355;28;20032;-36
2023/12/22 09:54:55;;;;;;;6.28;1.35;;;;;;;8.49;100.00;100346.38;5074160;28;20048;-36
2023/12/22 09:57:23;;;;;;;4.22;1.42;;;;;;;8.54;100.00;100351.09;5075048;28;20074;-36
2023/12/22 09:59:52;;;;;;;4.95;1.25;;;;;;;8.60;100.00;100342.09;5074285;28;20435;-36
2023/12/22 10:02:17;;;;;;;5.68;1.33;;;;;;;8.67;100.00;100350.06;5074180;28;20035;-36
2023/12/22 10:04:43;;;;;;;3.40;1.05;;;;;;;8.62;100.00;100341.84;5074203;28;20028;-36
2023/12/22 10:07:10;;;;;;;8.25;1.45;;;;;;;8.71;100.00;100349.38;5074946;28;20123;-36
2023/12/22 10:09:36;;;;;;;5.85;1.20;;;;;;;8.69;100.00;100343.41;5073995;28;20033;-36
2023/12/22 10:12:04;;;;;;;4.45;1.40;;;;;;;8.77;100.00;100358.41;5074047;28;20055;-36
2023/12/22 10:14:31;;;;;;;6.72;1.40;;;;;;;8.80;100.00;100355.25;5073660;28;20078;-36
2023/12/22 10:16:57;;;;;;;7.07;1.88;;;;;;;8.83;100.00;100348.56;5074168;28;20124;-36
2023/12/22 10:19:22;;;;;;;5.57;1.60;;;;;;;8.85;100.00;100354.56;5073712;28;20072;-36
2023/12/22 10:21:48;;;;;;;3.53;1.30;;;;;;;8.91;100.00;100346.34;5073986;28;20496;-36
2023/12/22 10:24:43;;;;;;;6.40;1.42;;;;;;;8.94;100.00;100359.38;5073578;28;20515;-36
2023/12/22 10:27:10;;;;;;;3.50;1.00;;;;;;;8.95;100.00;100354.81;5074669;28;20413;-36
2023/12/22 10:29:35;;;;;;;5.18;1.42;;;;;;;8.91;100.00;100349.06;5072866;28;20024;-36
2023/12/22 10:32:02;;;;;;;4.45;1.20;;;;;;;8.97;100.00;100360.78;5073807;28;20024;-36
2023/12/22 10:34:28;;;;;;;4.57;1.52;;;;;;;8.99;100.00;100358.69;5074489;28;20399;-36
2023/12/22 10:36:53;;;;;;;4.57;1.67;;;;;;;9.00;100.00;100363.84;5074129;28;20028;-36
2023/12/22 10:39:20;;;;;;;4.67;1.20;;;;;;;9.01;100.00;100349.31;5073920;28;20025;-36
2023/12/22 10:41:46;;;;;;;4.68;1.38;;;;;;;9.02;100.00;100342.03;5074126;28;20032;-36
2023/12/22 10:44:12;;;;;;;5.13;1.58;;;;;;;9.06;100.00;100340.50;5074129;28;20020;-36
2023/12/22 10:46:37;;;;;;;6.15;1.40;;;;;;;9.07;100.00;100342.16;5072646;28;20574;-36
2023/12/22 10:49:04;;;;;;;5.63;1.20;;;;;;;9.12;100.00;100355.75;5073514;28;20483;-36
2023/12/22 10:51:32;;;;;;;4.85;1.13;;;;;;;9.09;100.00;100356.25;5073098;28;20481;-36
2023/12/22 10:53:57;;;;;;;5.88;1.27;;;;;;;9.14;100.00;100360.94;5073153;28;20130;-36
2023/12/22 10:56:24;;;;;;;5.55;1.25;;;;;;;9.18;100.00;100345.94;5073860;28;20087;-36
2023/12/22 10:58:50;;;;;;;4.55;1.38;;;;;;;9.20;100.00;100346.50;5073173;28;20025;-36
2023/12/22 11:01:20;;;;;;;6.93;1.55;;;;;;;9.18;100.00;100354.03;5073179;28;20512;-36
2023/12/22 11:03:50;;;;;;;5.50;1.17;;;;;;;9.16;100.00;100334.53;5073684;28;20036;-36
2023/12/22 11:06:16;;;;;;;5.38;1.30;;;;;;;9.22;100.00;100350.63;5074286;28;20032;-36
2023/12/22 11:08:43;;;;;;;4.60;1.30;;;;;;;9.27;100.00;100352.59;5073120;28;20024;-36
2023/12/22 11:11:16;;;;;;;7.28;1.73;;;;;;;9.27;100.00;100347.19;5074203;28;20036;-36
2023/12/22 11:13:43;;;;;;;7.03;1.35;;;;;;;9.24;100.00;100342.28;5073401;28;20111;-36
2023/12/22 11:16:09;;;;;;;4.03;1.23;;;;;;;9.31;100.00;100339.47;5073207;28;20024;-36